Lancaster, Pennsylvania
Current Conditions -  °F | °C
As of 7:53 AM on Sunday 21 Dec 2014 (Local Time) from KLNS Reporting Station
Haze Haze  
Wind Chill: 18°   Ceiling: Unl
Heat Index: 24°   Visibility: 6mi
Dew Point: 21°   Wind: 5mph
Humidity: 88%   Direction: 260°W
Pressure: 30.32"   Gusts: NA
Location:  40.04°N, 76.3°W
Report Text: KLNS 211253Z 26004KT 6SM BR CLR M04/M06 A3032 RMK AO2 SLP271 T10441061
Loading
Personal Weather Stations






























Interactive Weather Map New forecast layout! Learn more

10-Day Weather Forecast

Advertisements
Track Severe Weather on mobile